Terminal Aerodrome Forecast
Issued by NWS Atlanta, GA

Home | Current Version | Previous Version | Text Only | Print | Product List | Glossary On
Versions: 1 2 3 4 5 6 7 8 9 10 11 12 13 14 15 16 17 18 19 20
000
FTUS42 KFFC 202329
TAFCSG
TAF
KCSG 202329Z 2100/2124 04005KT P6SM OVC011
     FM210500 06003KT 5SM BR OVC009
     FM210900 07003KT 3SM BR OVC005
     FM211400 07006KT 6SM BR OVC010
     FM211900 08006KT P6SM VCSH OVC015=

USA.gov is the U.S. government's official web portal to all federal, state and local government web resources and services.